createdAt,value
2023-02-08T00:01:11.677Z,16.38
2023-02-08T00:03:40.709Z,17.35
2023-02-08T00:06:10.367Z,18.33
2023-02-08T00:08:38.294Z,18.13
2023-02-08T00:11:06.833Z,19.27
2023-02-08T00:13:35.088Z,18.60
2023-02-08T00:16:02.924Z,19.50
2023-02-08T00:18:30.807Z,17.90
2023-02-08T00:20:58.450Z,16.92
2023-02-08T00:23:27.740Z,18.90
2023-02-08T00:25:55.332Z,19.73
2023-02-08T00:28:22.941Z,18.27
2023-02-08T00:30:50.527Z,19.27
2023-02-08T00:33:18.085Z,17.15
2023-02-08T00:35:46.272Z,17.33
2023-02-08T00:38:13.915Z,17.63
2023-02-08T00:40:42.845Z,18.30
2023-02-08T00:43:10.538Z,17.38
2023-02-08T00:45:38.142Z,18.70
2023-02-08T00:48:05.728Z,21.48
2023-02-08T00:50:33.294Z,16.70
2023-02-08T00:53:01.099Z,16.30
2023-02-08T00:55:28.685Z,20.42
2023-02-08T00:57:57.592Z,18.05
2023-02-08T01:00:25.290Z,16.45
2023-02-08T01:02:52.931Z,19.55
2023-02-08T01:05:20.652Z,18.10
2023-02-08T01:07:48.252Z,17.67
2023-02-08T01:10:15.870Z,15.43
2023-02-08T01:12:43.401Z,21.38
2023-02-08T01:15:12.350Z,18.77
2023-02-08T01:17:39.946Z,20.20
2023-02-08T01:20:08.498Z,20.77
2023-02-08T01:22:37.313Z,20.27
2023-02-08T01:25:05.218Z,18.73
2023-02-08T01:27:32.837Z,19.17
2023-02-08T01:30:00.364Z,19.33
2023-02-08T01:32:30.579Z,20.92
2023-02-08T01:34:58.346Z,20.95
2023-02-08T01:37:26.106Z,20.52
2023-02-08T01:39:53.682Z,20.15
2023-02-08T01:42:22.241Z,20.65
2023-02-08T01:45:23.338Z,22.77
2023-02-08T01:47:57.620Z,21.33
2023-02-08T01:50:30.736Z,21.15
2023-02-08T01:52:59.018Z,21.80
2023-02-08T01:55:29.063Z,23.52
2023-02-08T01:58:00.035Z,22.65
2023-02-08T02:00:28.326Z,18.88
2023-02-08T02:02:59.099Z,20.85
2023-02-08T02:05:30.534Z,19.75
2023-02-08T02:08:00.727Z,26.30
2023-02-08T02:10:30.343Z,21.60
2023-02-08T02:13:03.743Z,21.90
2023-02-08T02:15:31.678Z,23.45
2023-02-08T02:18:01.660Z,20.55
2023-02-08T02:20:50.439Z,24.27
2023-02-08T02:23:50.072Z,24.92
2023-02-08T02:26:40.648Z,23.67
2023-02-08T02:30:05.630Z,23.35
2023-02-08T02:32:47.369Z,22.50
2023-02-08T02:35:20.028Z,20.42
2023-02-08T02:37:57.054Z,24.45
2023-02-08T02:40:35.386Z,23.50
2023-02-08T02:43:29.675Z,23.95
2023-02-08T02:46:03.877Z,23.35
2023-02-08T02:48:39.540Z,22.23
2023-02-08T02:51:12.240Z,23.98
2023-02-08T02:53:49.241Z,25.35
2023-02-08T02:56:21.755Z,22.63
2023-02-08T02:58:50.419Z,25.13
2023-02-08T03:01:26.198Z,25.35
2023-02-08T03:03:55.707Z,25.35
2023-02-08T03:06:34.784Z,25.05
2023-02-08T03:09:17.551Z,27.20
2023-02-08T03:11:52.203Z,27.15
2023-02-08T03:14:32.899Z,25.77
2023-02-08T03:17:15.536Z,24.02
2023-02-08T03:19:51.009Z,28.38
2023-02-08T03:22:23.604Z,28.13
2023-02-08T03:24:56.084Z,25.20
2023-02-08T03:27:29.587Z,26.83
2023-02-08T03:30:01.975Z,27.65
2023-02-08T03:32:39.186Z,24.33
2023-02-08T03:35:12.129Z,26.60
2023-02-08T03:37:44.358Z,26.88
2023-02-08T03:40:17.583Z,25.75
2023-02-08T03:42:48.098Z,27.90
2023-02-08T03:45:20.882Z,27.45
2023-02-08T03:47:51.165Z,26.10
2023-02-08T03:50:22.868Z,31.70
2023-02-08T03:52:52.127Z,22.98
2023-02-08T03:55:24.204Z,30.98
2023-02-08T03:57:57.287Z,28.90
2023-02-08T04:00:25.685Z,30.67
2023-02-08T04:02:58.246Z,28.38
2023-02-08T04:05:27.487Z,26.90
2023-02-08T04:07:55.278Z,33.33
2023-02-08T04:10:22.992Z,29.70
2023-02-08T04:12:51.131Z,27.85
2023-02-08T04:15:19.278Z,33.83
2023-02-08T04:17:46.893Z,33.33
2023-02-08T04:20:14.691Z,27.40
2023-02-08T04:22:43.674Z,26.52
2023-02-08T04:25:11.215Z,28.90
2023-02-08T04:27:38.796Z,28.13
2023-02-08T04:30:06.983Z,31.17
2023-02-08T04:32:34.715Z,31.23
2023-02-08T04:35:02.315Z,30.40
2023-02-08T04:37:30.902Z,29.98
2023-02-08T04:40:00.877Z,35.30
2023-02-08T04:42:28.845Z,28.67
2023-02-08T04:44:56.434Z,33.20
2023-02-08T04:47:23.998Z,34.95
2023-02-08T04:49:51.534Z,31.63
2023-02-08T04:52:19.088Z,33.00
2023-02-08T04:54:46.734Z,26.17
2023-02-08T04:57:16.106Z,35.42
2023-02-08T04:59:43.719Z,32.88
2023-02-08T05:02:11.302Z,30.25
2023-02-08T05:04:38.910Z,30.83
2023-02-08T05:07:06.876Z,28.52
2023-02-08T05:09:34.732Z,27.73
2023-02-08T05:12:02.301Z,32.60
2023-02-08T05:14:31.322Z,30.42
2023-02-08T05:16:58.926Z,29.52
2023-02-08T05:19:27.575Z,28.92
2023-02-08T05:21:55.166Z,34.15
2023-02-08T05:24:22.893Z,31.58
2023-02-08T05:26:50.432Z,33.95
2023-02-08T05:29:18.060Z,31.75
2023-02-08T05:31:47.034Z,31.85
2023-02-08T05:34:14.668Z,30.08
2023-02-08T05:36:42.272Z,31.30
2023-02-08T05:39:10.109Z,37.10
2023-02-08T05:41:37.737Z,31.98
2023-02-08T05:44:05.378Z,31.40
2023-02-08T05:46:33.053Z,33.42
2023-02-08T05:49:02.020Z,28.80
2023-02-08T05:51:29.688Z,31.65
2023-02-08T05:53:57.558Z,27.85
2023-02-08T05:56:25.233Z,31.95
2023-02-08T05:58:52.819Z,28.27
2023-02-08T06:01:20.527Z,32.90
2023-02-08T06:03:48.715Z,30.33
2023-02-08T06:06:17.677Z,30.10
2023-02-08T06:08:45.286Z,29.75
2023-02-08T06:11:13.065Z,29.17
2023-02-08T06:13:40.638Z,31.55
2023-02-08T06:16:08.784Z,28.85
2023-02-08T06:18:36.436Z,33.78
2023-02-08T06:21:04.159Z,32.72
2023-02-08T06:23:33.641Z,29.08
2023-02-08T06:26:01.335Z,32.13
2023-02-08T06:28:29.021Z,31.00
2023-02-08T06:30:56.661Z,37.95
2023-02-08T06:33:25.253Z,29.85
2023-02-08T06:35:53.741Z,34.92
2023-02-08T06:38:21.397Z,33.58
2023-02-08T06:40:51.220Z,29.88
2023-02-08T06:43:19.051Z,34.17
2023-02-08T06:45:47.222Z,34.35
2023-02-08T06:48:15.067Z,35.00
2023-02-08T06:50:43.149Z,31.08
2023-02-08T06:53:11.013Z,35.97
2023-02-08T06:55:38.751Z,29.17
2023-02-08T06:58:07.764Z,32.20
2023-02-08T07:00:35.680Z,38.05
2023-02-08T07:03:03.451Z,37.35
2023-02-08T07:05:31.059Z,31.45
2023-02-08T07:07:59.029Z,35.53
2023-02-08T07:10:26.700Z,33.97
2023-02-08T07:12:54.502Z,39.15
2023-02-08T07:15:23.477Z,37.75
2023-02-08T07:17:51.363Z,38.35
2023-02-08T07:20:19.173Z,37.17
2023-02-08T07:22:46.809Z,33.83
2023-02-08T07:25:14.410Z,34.55
2023-02-08T07:27:42.142Z,37.80
2023-02-08T07:30:11.022Z,34.38
2023-02-08T07:32:39.986Z,34.47
2023-02-08T07:35:08.376Z,38.60
2023-02-08T07:37:36.045Z,37.35
2023-02-08T07:40:03.732Z,33.97
2023-02-08T07:42:31.382Z,33.67
2023-02-08T07:45:16.542Z,33.80
2023-02-08T07:47:46.991Z,32.38
2023-02-08T07:50:16.222Z,36.72
2023-02-08T07:52:46.102Z,36.22
2023-02-08T07:55:16.870Z,36.42
2023-02-08T07:57:44.542Z,36.55
2023-02-08T08:00:13.528Z,37.15
2023-02-08T08:02:41.400Z,34.08
2023-02-08T08:05:11.316Z,36.25
2023-02-08T08:07:39.018Z,37.70
2023-02-08T08:10:07.402Z,35.78
2023-02-08T08:12:35.057Z,33.42
2023-02-08T08:15:02.970Z,36.92
2023-02-08T08:17:30.480Z,35.08
2023-02-08T08:19:58.113Z,33.05
2023-02-08T08:22:27.080Z,37.13
2023-02-08T08:24:54.852Z,37.80
2023-02-08T08:27:22.639Z,37.85
2023-02-08T08:29:50.501Z,35.25
2023-02-08T08:32:18.099Z,40.92
2023-02-08T08:34:47.966Z,35.47
2023-02-08T08:37:15.906Z,35.95
2023-02-08T08:39:44.933Z,36.67
2023-02-08T08:42:12.545Z,40.58
2023-02-08T08:44:40.421Z,37.78
2023-02-08T08:47:09.966Z,35.15
2023-02-08T08:49:37.658Z,37.53
2023-02-08T08:52:07.762Z,40.80
2023-02-08T08:54:36.204Z,40.50
2023-02-08T08:57:05.407Z,39.40
2023-02-08T08:59:33.678Z,37.80
2023-02-08T09:02:01.358Z,38.10
2023-02-08T09:04:29.096Z,39.20
2023-02-08T09:06:56.756Z,38.60
2023-02-08T09:09:24.440Z,42.03
2023-02-08T09:11:52.073Z,40.58
2023-02-08T09:14:21.198Z,35.78
2023-02-08T09:16:49.172Z,37.13
2023-02-08T09:19:16.953Z,40.38
2023-02-08T09:21:46.406Z,41.05
2023-02-08T09:24:14.099Z,41.78
2023-02-08T09:26:42.183Z,39.60
2023-02-08T09:29:10.059Z,36.65
2023-02-08T09:31:39.563Z,40.97
2023-02-08T09:34:08.013Z,42.78
2023-02-08T09:36:37.718Z,39.22
2023-02-08T09:39:09.171Z,41.88
2023-02-08T09:42:02.785Z,37.38
2023-02-08T09:44:37.328Z,39.38
2023-02-08T09:47:11.811Z,36.10
2023-02-08T09:49:45.152Z,40.97
2023-02-08T09:52:17.747Z,39.67
2023-02-08T09:54:50.030Z,39.13
2023-02-08T09:57:22.329Z,38.88
2023-02-08T09:59:55.371Z,41.53
2023-02-08T10:02:28.072Z,40.20
2023-02-08T10:04:59.684Z,40.20
2023-02-08T10:07:29.203Z,38.95
2023-02-08T10:09:59.668Z,41.40
2023-02-08T10:12:38.785Z,41.45
2023-02-08T10:15:15.012Z,41.65
2023-02-08T10:17:54.270Z,36.72
2023-02-08T10:20:33.717Z,36.67
2023-02-08T10:23:19.878Z,43.85
2023-02-08T10:26:03.672Z,36.42
2023-02-08T10:28:52.054Z,39.13
2023-02-08T10:31:26.243Z,39.97
2023-02-08T10:34:02.613Z,36.88
2023-02-08T10:36:34.175Z,40.13
2023-02-08T10:39:04.981Z,39.15
2023-02-08T10:41:35.427Z,38.15
2023-02-08T10:44:06.858Z,34.40
2023-02-08T10:46:41.675Z,35.63
2023-02-08T10:49:16.217Z,36.42
2023-02-08T10:51:44.114Z,31.13
2023-02-08T10:54:14.687Z,35.00
2023-02-08T10:56:47.243Z,33.95
2023-02-08T10:59:18.225Z,37.63
2023-02-08T11:01:47.160Z,42.78
2023-02-08T11:04:17.086Z,36.05
2023-02-08T11:06:46.397Z,52.33
2023-02-08T11:09:22.955Z,40.10
2023-02-08T11:11:52.670Z,36.33
2023-02-08T11:14:26.080Z,39.70
2023-02-08T11:16:56.300Z,37.90
2023-02-08T11:19:36.494Z,36.25
2023-02-08T11:22:06.194Z,39.17
2023-02-08T11:24:40.157Z,39.55
2023-02-08T11:27:18.771Z,39.33
2023-02-08T11:29:47.098Z,36.28
2023-02-08T11:32:18.556Z,36.83
2023-02-08T11:34:48.725Z,31.63
2023-02-08T11:37:20.841Z,36.63
2023-02-08T11:39:54.211Z,35.90
2023-02-08T11:42:25.885Z,36.75
2023-02-08T11:44:55.207Z,34.13
2023-02-08T11:47:26.784Z,31.95
2023-02-08T11:49:57.986Z,35.42
2023-02-08T11:52:28.210Z,34.85
2023-02-08T11:55:11.754Z,35.65
2023-02-08T11:57:53.009Z,30.50
2023-02-08T12:00:23.370Z,34.10
2023-02-08T12:02:51.500Z,32.58
2023-02-08T12:05:30.611Z,32.60
2023-02-08T12:08:08.425Z,31.73
2023-02-08T12:10:58.380Z,29.83
2023-02-08T12:13:50.445Z,31.13
2023-02-08T12:16:36.028Z,30.92
2023-02-08T12:19:28.109Z,30.95
2023-02-08T12:22:00.612Z,29.63
2023-02-08T12:24:39.442Z,26.70
2023-02-08T12:27:22.990Z,31.73
2023-02-08T12:29:59.115Z,28.85
2023-02-08T12:32:42.489Z,24.98
2023-02-08T12:35:45.727Z,28.20
2023-02-08T12:38:50.498Z,23.88
2023-02-08T12:41:23.740Z,25.15
2023-02-08T12:44:02.134Z,25.63
2023-02-08T12:46:52.513Z,28.15
2023-02-08T12:49:35.808Z,27.85
2023-02-08T12:52:15.463Z,26.02
2023-02-08T12:54:50.071Z,23.42
2023-02-08T12:57:20.973Z,24.33
2023-02-08T12:59:52.032Z,25.25
2023-02-08T13:02:24.173Z,24.00
2023-02-08T13:04:54.960Z,21.02
2023-02-08T13:07:26.734Z,27.40
2023-02-08T13:10:03.887Z,23.27
2023-02-08T13:12:34.925Z,23.73
2023-02-08T13:15:09.241Z,27.25
2023-02-08T13:17:46.340Z,26.73
2023-02-08T13:20:30.114Z,25.55
2023-02-08T13:23:02.974Z,23.98
2023-02-08T13:25:36.148Z,20.85
2023-02-08T13:28:05.005Z,22.30
2023-02-08T13:30:34.672Z,21.65
2023-02-08T13:33:06.845Z,25.10
2023-02-08T13:35:35.008Z,24.42
2023-02-08T13:38:04.937Z,23.88
2023-02-08T13:40:36.173Z,21.40
2023-02-08T13:43:06.693Z,23.25
2023-02-08T13:45:36.877Z,17.48
2023-02-08T13:48:07.106Z,22.70
2023-02-08T13:50:46.802Z,19.77
2023-02-08T13:53:15.889Z,20.40
2023-02-08T13:56:08.246Z,17.45
2023-02-08T13:58:39.403Z,16.02
2023-02-08T14:01:17.918Z,18.65
2023-02-08T14:03:45.771Z,17.50
2023-02-08T14:06:20.760Z,14.50
2023-02-08T14:08:56.197Z,14.55
2023-02-08T14:11:37.470Z,16.55
2023-02-08T14:14:13.935Z,12.95
2023-02-08T14:16:41.823Z,11.13
2023-02-08T14:19:25.994Z,11.73
2023-02-08T14:22:02.886Z,14.40
2023-02-08T14:24:34.458Z,9.55
2023-02-08T14:27:10.654Z,13.20
2023-02-08T14:29:38.755Z,10.95
2023-02-08T14:32:07.055Z,12.20
2023-02-08T14:34:37.296Z,11.00
2023-02-08T14:37:07.364Z,11.68
2023-02-08T14:39:37.267Z,13.52
2023-02-08T14:42:08.609Z,10.32
2023-02-08T14:45:05.680Z,10.95
2023-02-08T14:48:20.589Z,10.48
2023-02-08T14:50:55.918Z,15.02
2023-02-08T14:53:35.988Z,14.63
2023-02-08T14:56:13.982Z,15.15
2023-02-08T14:58:45.103Z,14.63
2023-02-08T15:01:19.254Z,17.52
2023-02-08T15:03:49.433Z,16.30
2023-02-08T15:06:50.391Z,18.23
2023-02-08T15:09:21.567Z,16.90
2023-02-08T15:11:52.449Z,14.05
2023-02-08T15:14:21.953Z,17.33
2023-02-08T15:16:53.478Z,18.38
2023-02-08T15:19:25.238Z,16.90
2023-02-08T15:21:52.932Z,21.85
2023-02-08T15:24:23.369Z,20.65
2023-02-08T15:26:52.902Z,18.13
2023-02-08T15:29:26.138Z,19.33
2023-02-08T15:31:59.176Z,19.00
2023-02-08T15:34:27.763Z,20.23
2023-02-08T15:36:57.335Z,22.52
2023-02-08T15:39:34.640Z,19.27
2023-02-08T15:42:02.918Z,18.73
2023-02-08T15:44:32.834Z,18.52
2023-02-08T15:47:03.774Z,19.80
2023-02-08T15:49:34.704Z,23.02
2023-02-08T15:52:02.822Z,20.15
2023-02-08T15:54:30.622Z,18.25
2023-02-08T15:57:01.290Z,18.83
2023-02-08T15:59:32.730Z,22.83
2023-02-08T16:02:24.064Z,20.98
2023-02-08T16:04:51.986Z,21.00
2023-02-08T16:07:28.261Z,21.52
2023-02-08T16:09:57.125Z,19.27
2023-02-08T16:12:27.342Z,24.17
2023-02-08T16:14:56.961Z,21.33
2023-02-08T16:17:36.428Z,22.30
2023-02-08T16:20:05.299Z,18.73
2023-02-08T16:22:33.803Z,20.23
2023-02-08T16:25:33.824Z,18.73
2023-02-08T16:28:01.543Z,18.23
2023-02-08T16:30:29.358Z,20.73
2023-02-08T16:32:58.528Z,18.85
2023-02-08T16:35:29.522Z,21.52
2023-02-08T16:38:00.374Z,17.67
2023-02-08T16:40:48.650Z,23.08
2023-02-08T16:43:18.281Z,21.83
2023-02-08T16:45:46.135Z,20.90
2023-02-08T16:48:35.005Z,19.38
2023-02-08T16:51:03.346Z,16.15
2023-02-08T16:53:41.422Z,16.85
2023-02-08T16:56:11.156Z,17.88
2023-02-08T16:58:39.385Z,18.65
2023-02-08T17:01:07.771Z,22.60
2023-02-08T17:03:38.248Z,21.90
2023-02-08T17:06:06.461Z,17.38
2023-02-08T17:08:35.787Z,20.55
2023-02-08T17:11:03.501Z,19.77
2023-02-08T17:13:31.182Z,22.63
2023-02-08T17:16:00.852Z,16.98
2023-02-08T17:18:28.399Z,21.75
2023-02-08T17:20:59.938Z,21.45
2023-02-08T17:23:27.759Z,22.77
2023-02-08T17:25:55.527Z,22.17
2023-02-08T17:28:23.480Z,23.30
2023-02-08T17:30:53.127Z,25.77
2023-02-08T17:33:21.063Z,20.52
2023-02-08T17:35:50.661Z,24.02
2023-02-08T17:38:19.740Z,24.08
2023-02-08T17:40:47.666Z,22.80
2023-02-08T17:43:15.690Z,26.42
2023-02-08T17:45:45.140Z,21.17
2023-02-08T17:48:14.192Z,22.85
2023-02-08T17:50:43.532Z,23.75
2023-02-08T17:53:11.371Z,21.40
2023-02-08T17:55:42.418Z,23.13
2023-02-08T17:58:10.134Z,23.58
2023-02-08T18:00:38.051Z,27.42
2023-02-08T18:03:05.922Z,22.70
2023-02-08T18:05:33.472Z,23.90
2023-02-08T18:08:01.058Z,28.98
2023-02-08T18:10:28.905Z,29.42
2023-02-08T18:12:57.829Z,30.42
2023-02-08T18:15:25.366Z,28.25
2023-02-08T18:17:53.092Z,25.55
2023-02-08T18:20:20.971Z,25.33
2023-02-08T18:22:48.519Z,28.92
2023-02-08T18:25:17.556Z,28.25
2023-02-08T18:27:45.090Z,26.70
2023-02-08T18:30:15.464Z,27.50
2023-02-08T18:32:43.149Z,31.52
2023-02-08T18:35:10.897Z,30.67
2023-02-08T18:37:39.033Z,27.33
2023-02-08T18:40:09.327Z,27.38
2023-02-08T18:42:36.990Z,26.77
2023-02-08T18:45:04.871Z,25.60
2023-02-08T18:47:35.437Z,28.25
2023-02-08T18:50:03.508Z,25.63
2023-02-08T18:52:31.699Z,27.20
2023-02-08T18:54:59.621Z,28.23
2023-02-08T18:57:27.303Z,33.53
2023-02-08T18:59:55.887Z,26.38
2023-02-08T19:02:26.188Z,30.67
2023-02-08T19:04:55.192Z,29.35
2023-02-08T19:07:22.947Z,33.13
2023-02-08T19:09:50.514Z,31.52
2023-02-08T19:12:18.925Z,26.65
2023-02-08T19:14:50.440Z,31.52
2023-02-08T19:17:18.259Z,33.20
2023-02-08T19:19:46.581Z,29.13
2023-02-08T19:22:15.716Z,30.55
2023-02-08T19:24:43.601Z,30.02
2023-02-08T19:27:11.428Z,29.00
2023-02-08T19:29:39.127Z,26.40
2023-02-08T19:32:07.970Z,29.13
2023-02-08T19:34:35.604Z,25.17
2023-02-08T19:37:03.341Z,28.67
2023-02-08T19:39:32.495Z,29.67
2023-02-08T19:42:00.308Z,29.17
2023-02-08T19:44:30.424Z,31.52
2023-02-08T19:46:58.482Z,28.42
2023-02-08T19:49:27.513Z,28.05
2023-02-08T19:51:55.480Z,31.42
2023-02-08T19:54:23.071Z,32.65
2023-02-08T19:56:54.693Z,30.50
2023-02-08T19:59:24.266Z,27.10
2023-02-08T20:01:51.827Z,30.02
2023-02-08T20:04:19.617Z,28.27
2023-02-08T20:06:47.537Z,26.45
2023-02-08T20:09:16.515Z,28.23
2023-02-08T20:11:56.881Z,30.63
2023-02-08T20:14:28.917Z,29.65
2023-02-08T20:16:56.889Z,27.55
2023-02-08T20:19:25.194Z,33.55
2023-02-08T20:21:52.926Z,30.13
2023-02-08T20:24:20.740Z,30.30
2023-02-08T20:26:49.440Z,31.27
2023-02-08T20:29:18.537Z,33.10
2023-02-08T20:31:51.788Z,34.35
2023-02-08T20:34:19.579Z,30.92
2023-02-08T20:37:05.365Z,32.15
2023-02-08T20:39:34.682Z,31.17
2023-02-08T20:42:02.268Z,33.55
2023-02-08T20:44:31.694Z,32.97
2023-02-08T20:47:00.731Z,31.48
2023-02-08T20:49:29.326Z,33.58
2023-02-08T20:51:57.041Z,32.80
2023-02-08T20:54:25.406Z,33.35
2023-02-08T20:56:54.961Z,33.00
2023-02-08T20:59:25.935Z,36.70
2023-02-08T21:01:53.673Z,35.65
2023-02-08T21:04:23.780Z,34.17
2023-02-08T21:06:52.485Z,35.30
2023-02-08T21:09:21.076Z,36.28
2023-02-08T21:11:49.054Z,33.60
2023-02-08T21:14:20.516Z,33.58
2023-02-08T21:16:49.518Z,35.35
2023-02-08T21:19:17.742Z,33.10
2023-02-08T21:21:47.293Z,36.33
2023-02-08T21:24:14.857Z,35.90
2023-02-08T21:26:42.421Z,34.00
2023-02-08T21:29:10.389Z,34.80
2023-02-08T21:31:38.204Z,35.28
2023-02-08T21:34:06.850Z,36.80
2023-02-08T21:36:35.156Z,33.60
2023-02-08T21:39:04.886Z,35.85
2023-02-08T21:41:34.241Z,36.15
2023-02-08T21:44:04.455Z,44.03
2023-02-08T21:46:32.808Z,37.03
2023-02-08T21:49:18.784Z,34.85
2023-02-08T21:52:04.359Z,38.30
2023-02-08T21:54:45.744Z,37.80
2023-02-08T21:57:18.609Z,42.03
2023-02-08T21:59:47.734Z,41.20
2023-02-08T22:02:21.613Z,36.03
2023-02-08T22:04:49.957Z,35.75
2023-02-08T22:07:17.546Z,38.40
2023-02-08T22:09:48.766Z,34.78
2023-02-08T22:12:20.559Z,34.78
2023-02-08T22:14:48.579Z,37.10
2023-02-08T22:17:16.789Z,40.83
2023-02-08T22:19:44.532Z,37.72
2023-02-08T22:22:12.715Z,38.88
2023-02-08T22:24:40.321Z,39.47
2023-02-08T22:27:09.848Z,42.15
2023-02-08T22:29:37.502Z,39.65
2023-02-08T22:32:05.608Z,34.08
2023-02-08T22:34:33.334Z,36.13
2023-02-08T22:37:03.661Z,36.17
2023-02-08T22:39:32.872Z,36.83
2023-02-08T22:42:00.811Z,35.25
2023-02-08T22:44:29.799Z,39.05
2023-02-08T22:46:58.084Z,38.95
2023-02-08T22:49:25.756Z,40.45
2023-02-08T22:51:53.345Z,38.53
2023-02-08T22:54:20.951Z,36.78
2023-02-08T22:56:48.456Z,38.67
2023-02-08T22:59:16.074Z,33.50
2023-02-08T23:01:45.077Z,37.10
2023-02-08T23:04:12.697Z,40.65
2023-02-08T23:06:40.450Z,43.03
2023-02-08T23:09:08.451Z,40.13
2023-02-08T23:11:36.133Z,43.15
2023-02-08T23:14:03.691Z,38.22
2023-02-08T23:16:31.419Z,38.28
2023-02-08T23:19:00.305Z,44.45
2023-02-08T23:21:28.718Z,42.55
2023-02-08T23:23:56.459Z,40.35
2023-02-08T23:26:24.194Z,43.90
2023-02-08T23:28:52.892Z,44.33
2023-02-08T23:31:21.310Z,40.35
2023-02-08T23:33:49.585Z,43.05
2023-02-08T23:36:21.225Z,45.28
2023-02-08T23:38:49.060Z,39.92
2023-02-08T23:41:19.035Z,44.53
2023-02-08T23:43:47.242Z,39.97
2023-02-08T23:46:17.503Z,40.67
2023-02-08T23:48:47.518Z,40.47
2023-02-08T23:51:16.012Z,40.38
2023-02-08T23:53:45.429Z,43.15
2023-02-08T23:56:15.933Z,40.55
2023-02-08T23:58:43.990Z,41.80
